www.cux-wetter.de
Wetterdaten: Mittwoch, 17.10.2012
Datum Zeit Temp. A. Feuchte A. Luftdruck Regen Wind Richtung Richtung Sonnenschein Solar Taupunkt Windchill Windben
17.10.2012 00:00 9,6 C 90 % 1004,5 hPa 0,0 l/m 32,3 km/h (5 Bft) W 265 0 min 0 W/m 8,0 C -0,4 C 32,3 km/h (5 Bft)
17.10.2012 00:15 9,7 C 90 % 1004,5 hPa 0,0 l/m 34,4 km/h (5 Bft) W-SW 255 0 min 0 W/m 8,1 C -0,6 C 34,4 km/h (5 Bft)
17.10.2012 00:30 9,8 C 89 % 1004,5 hPa 0,0 l/m 33,5 km/h (5 Bft) W 275 0 min 0 W/m 8,1 C -0,3 C 33,5 km/h (5 Bft)
17.10.2012 00:44 9,9 C 89 % 1004,5 hPa 0,0 l/m 34,1 km/h (5 Bft) W 270 0 min 0 W/m 8,2 C -0,3 C 34,1 km/h (5 Bft)
17.10.2012 01:00 9,9 C 88 % 1004,5 hPa 0,0 l/m 34,8 km/h (5 Bft) W 270 0 min 0 W/m 8,0 C -0,4 C 34,8 km/h (5 Bft)
17.10.2012 01:15 9,9 C 88 % 1004,5 hPa 0,0 l/m 35,0 km/h (5 Bft) W 270 0 min 0 W/m 8,0 C -0,5 C 35,0 km/h (5 Bft)
17.10.2012 01:29 10,0 C 87 % 1005,5 hPa 0,0 l/m 31,5 km/h (5 Bft) W 280 0 min 0 W/m 7,9 C 0,3 C 31,5 km/h (5 Bft)
17.10.2012 01:45 10,0 C 87 % 1005,5 hPa 0,0 l/m 31,7 km/h (5 Bft) W 270 0 min 0 W/m 7,9 C 0,3 C 31,7 km/h (5 Bft)
17.10.2012 02:00 9,8 C 87 % 1005,5 hPa 0,0 l/m 27,5 km/h (5 Bft) W 270 0 min 0 W/m 7,7 C 0,9 C 27,5 km/h (5 Bft)
17.10.2012 02:14 9,6 C 87 % 1005,5 hPa 0,0 l/m 21,9 km/h (4 Bft) W 260 0 min 0 W/m 7,5 C 2,2 C 21,9 km/h (4 Bft)
17.10.2012 02:30 9,5 C 87 % 1005,5 hPa 0,0 l/m 22,1 km/h (4 Bft) W-SW 255 0 min 0 W/m 7,4 C 2,0 C 22,1 km/h (4 Bft)
17.10.2012 02:45 9,3 C 88 % 1005,5 hPa 0,0 l/m 21,8 km/h (4 Bft) W-SW 250 0 min 0 W/m 7,4 C 1,8 C 21,8 km/h (4 Bft)
17.10.2012 03:00 9,2 C 88 % 1005,5 hPa 0,0 l/m 20,9 km/h (4 Bft) W 265 0 min 0 W/m 7,3 C 2,0 C 20,9 km/h (4 Bft)
17.10.2012 03:15 9,1 C 88 % 1006,5 hPa 0,0 l/m 21,5 km/h (4 Bft) W 260 0 min 0 W/m 7,2 C 1,6 C 21,5 km/h (4 Bft)
17.10.2012 03:30 9,2 C 88 % 1006,5 hPa 0,0 l/m 24,1 km/h (4 Bft) W 265 0 min 0 W/m 7,3 C 1,0 C 24,1 km/h (4 Bft)
17.10.2012 03:45 9,1 C 88 % 1006,5 hPa 0,0 l/m 23,1 km/h (4 Bft) W 270 0 min 0 W/m 7,2 C 1,1 C 23,1 km/h (4 Bft)
17.10.2012 04:00 9,0 C 88 % 1006,5 hPa 0,0 l/m 27,4 km/h (5 Bft) W 260 0 min 0 W/m 7,1 C -0,1 C 27,4 km/h (5 Bft)
17.10.2012 04:15 8,9 C 88 % 1006,5 hPa 0,0 l/m 27,1 km/h (5 Bft) W 260 0 min 0 W/m 7,0 C -0,2 C 27,1 km/h (5 Bft)
17.10.2012 04:30 8,8 C 89 % 1006,5 hPa 0,0 l/m 23,1 km/h (4 Bft) W-SW 250 0 min 0 W/m 7,1 C 0,7 C 23,1 km/h (4 Bft)
17.10.2012 04:45 8,8 C 89 % 1006,5 hPa 0,0 l/m 21,8 km/h (4 Bft) W 260 0 min 0 W/m 7,1 C 1,1 C 21,8 km/h (4 Bft)
17.10.2012 05:00 8,8 C 89 % 1006,5 hPa 0,0 l/m 22,4 km/h (4 Bft) W-SW 245 0 min 0 W/m 7,1 C 1,0 C 22,4 km/h (4 Bft)
17.10.2012 05:15 8,6 C 89 % 1006,5 hPa 0,0 l/m 16,2 km/h (3 Bft) W-SW 245 0 min 0 W/m 6,9 C 2,9 C 16,2 km/h (3 Bft)
17.10.2012 05:30 8,6 C 89 % 1006,5 hPa 0,0 l/m 20,6 km/h (4 Bft) W-SW 255 0 min 0 W/m 6,9 C 1,3 C 20,6 km/h (4 Bft)
17.10.2012 05:45 8,5 C 89 % 1007,5 hPa 0,0 l/m 17,6 km/h (3 Bft) W-SW 240 0 min 0 W/m 6,8 C 2,2 C 17,6 km/h (3 Bft)
17.10.2012 06:00 8,5 C 90 % 1006,5 hPa 0,0 l/m 18,9 km/h (3 Bft) W-SW 245 0 min 0 W/m 7,0 C 1,7 C 18,9 km/h (3 Bft)
17.10.2012 06:15 8,5 C 89 % 1006,5 hPa 0,0 l/m 14,6 km/h (3 Bft) SW 235 0 min 0 W/m 6,8 C 3,5 C 14,6 km/h (3 Bft)
17.10.2012 06:30 8,4 C 89 % 1006,5 hPa 0,0 l/m 12,8 km/h (3 Bft) SW 215 0 min 0 W/m 6,7 C 4,3 C 12,8 km/h (3 Bft)
17.10.2012 06:45 8,4 C 89 % 1006,5 hPa 0,0 l/m 14,5 km/h (3 Bft) S-SW 205 0 min 0 W/m 6,7 C 3,4 C 14,5 km/h (3 Bft)
17.10.2012 07:00 8,4 C 89 % 1006,5 hPa 0,0 l/m 14,8 km/h (3 Bft) SW 225 0 min 0 W/m 6,7 C 3,3 C 14,8 km/h (3 Bft)
17.10.2012 07:15 8,3 C 89 % 1006,5 hPa 0,0 l/m 17,9 km/h (3 Bft) S-SW 210 0 min 0 W/m 6,6 C 1,9 C 17,9 km/h (3 Bft)
17.10.2012 07:30 8,3 C 89 % 1006,5 hPa 0,0 l/m 20,2 km/h (4 Bft) SW 215 0 min 0 W/m 6,6 C 1,0 C 20,2 km/h (4 Bft)
17.10.2012 07:44 8,4 C 90 % 1006,5 hPa 0,0 l/m 19,1 km/h (3 Bft) SW 225 0 min 0 W/m 6,9 C 1,5 C 19,1 km/h (3 Bft)
17.10.2012 08:00 8,4 C 90 % 1006,5 hPa 0,0 l/m 14,4 km/h (3 Bft) SW 215 0 min 0 W/m 6,9 C 3,5 C 14,4 km/h (3 Bft)
17.10.2012 08:15 8,2 C 90 % 1006,5 hPa 0,0 l/m 16,6 km/h (3 Bft) S-SW 210 0 min 0 W/m 6,7 C 2,3 C 16,6 km/h (3 Bft)
17.10.2012 08:29 8,2 C 90 % 1006,5 hPa 0,0 l/m 16,8 km/h (3 Bft) S-SW 210 0 min 0 W/m 6,7 C 2,2 C 16,8 km/h (3 Bft)
17.10.2012 08:45 8,3 C 90 % 1007,5 hPa 0,0 l/m 20,6 km/h (4 Bft) SW 215 0 min 0 W/m 6,8 C 0,9 C 20,6 km/h (4 Bft)
17.10.2012 09:00 8,4 C 90 % 1007,5 hPa 0,0 l/m 19,2 km/h (3 Bft) SW 220 0 min 0 W/m 6,9 C 1,5 C 19,2 km/h (3 Bft)
17.10.2012 09:14 8,5 C 90 % 1007,5 hPa 0,0 l/m 20,6 km/h (4 Bft) SW 220 0 min 0 W/m 7,0 C 1,1 C 20,6 km/h (4 Bft)
17.10.2012 09:30 8,7 C 90 % 1007,5 hPa 0,0 l/m 17,3 km/h (3 Bft) S-SW 210 0 min 0 W/m 7,2 C 2,6 C 17,3 km/h (3 Bft)
17.10.2012 09:45 8,8 C 90 % 1007,5 hPa 0,0 l/m 18,1 km/h (3 Bft) S-SW 200 0 min 0 W/m 7,3 C 2,4 C 18,1 km/h (3 Bft)
17.10.2012 10:00 8,9 C 90 % 1007,5 hPa 0,0 l/m 13,7 km/h (3 Bft) S 180 0 min 0 W/m 7,4 C 4,4 C 13,7 km/h (3 Bft)
17.10.2012 10:15 9,0 C 90 % 1007,5 hPa 0,0 l/m 13,3 km/h (3 Bft) S 175 0 min 0 W/m 7,4 C 4,7 C 13,3 km/h (3 Bft)
17.10.2012 10:30 9,2 C 90 % 1007,5 hPa 0,0 l/m 17,8 km/h (3 Bft) S-SW 195 0 min 0 W/m 7,6 C 3,0 C 17,8 km/h (3 Bft)
17.10.2012 10:45 9,4 C 89 % 1007,5 hPa 0,0 l/m 17,3 km/h (3 Bft) S 185 0 min 0 W/m 7,7 C 3,5 C 17,3 km/h (3 Bft)
17.10.2012 11:00 9,9 C 89 % 1007,5 hPa 0,0 l/m 20,0 km/h (4 Bft) S-SW 205 0 min 0 W/m 8,2 C 3,2 C 20,0 km/h (4 Bft)
17.10.2012 11:15 10,3 C 87 % 1006,5 hPa 0,0 l/m 20,1 km/h (4 Bft) S-SW 195 0 min 0 W/m 8,2 C 3,6 C 20,1 km/h (4 Bft)
17.10.2012 11:30 10,4 C 86 % 1006,5 hPa 0,0 l/m 21,6 km/h (4 Bft) S 190 0 min 0 W/m 8,2 C 3,3 C 21,6 km/h (4 Bft)
17.10.2012 11:45 10,4 C 85 % 1006,5 hPa 0,0 l/m 16,1 km/h (3 Bft) S 180 0 min 0 W/m 8,0 C 5,2 C 16,1 km/h (3 Bft)
17.10.2012 12:00 11,0 C 84 % 1006,5 hPa 0,0 l/m 24,6 km/h (4 Bft) S 185 0 min 0 W/m 8,4 C 3,3 C 24,6 km/h (4 Bft)
17.10.2012 12:15 10,8 C 83 % 1006,5 hPa 0,0 l/m 21,6 km/h (4 Bft) S 180 0 min 0 W/m 8,0 C 3,8 C 21,6 km/h (4 Bft)
17.10.2012 12:30 10,6 C 83 % 1006,5 hPa 0,0 l/m 18,8 km/h (3 Bft) S-SW 195 0 min 0 W/m 7,8 C 4,5 C 18,8 km/h (3 Bft)
17.10.2012 12:45 10,6 C 85 % 1006,5 hPa 0,3 l/m 23,0 km/h (4 Bft) S-SW 195 0 min 0 W/m 8,2 C 3,2 C 23,0 km/h (4 Bft)
17.10.2012 13:00 10,8 C 85 % 1006,5 hPa 0,0 l/m 21,6 km/h (4 Bft) S-SW 200 0 min 0 W/m 8,4 C 3,8 C 21,6 km/h (4 Bft)
17.10.2012 13:15 10,8 C 85 % 1006,5 hPa 0,0 l/m 23,6 km/h (4 Bft) S-SW 195 0 min 0 W/m 8,4 C 3,3 C 23,6 km/h (4 Bft)
17.10.2012 13:30 10,9 C 85 % 1005,5 hPa 0,0 l/m 26,3 km/h (4 Bft) S-SW 195 0 min 0 W/m 8,5 C 2,7 C 26,3 km/h (4 Bft)
17.10.2012 13:45 10,9 C 85 % 1005,5 hPa 0,0 l/m 29,8 km/h (5 Bft) S-SW 205 0 min 0 W/m 8,5 C 2,0 C 29,8 km/h (5 Bft)
17.10.2012 13:59 11,0 C 85 % 1005,5 hPa 0,0 l/m 25,3 km/h (4 Bft) S-SW 205 0 min 0 W/m 8,6 C 3,1 C 25,3 km/h (4 Bft)
17.10.2012 14:15 11,2 C 85 % 1005,5 hPa 0,0 l/m 24,4 km/h (4 Bft) S 190 0 min 0 W/m 8,8 C 3,6 C 24,4 km/h (4 Bft)
17.10.2012 14:29 11,2 C 85 % 1004,5 hPa 0,0 l/m 25,5 km/h (4 Bft) S-SW 195 0 min 0 W/m 8,8 C 3,3 C 25,5 km/h (4 Bft)
17.10.2012 14:44 11,2 C 86 % 1004,5 hPa 0,0 l/m 24,3 km/h (4 Bft) S 190 0 min 0 W/m 8,9 C 3,6 C 24,3 km/h (4 Bft)
17.10.2012 15:00 11,4 C 86 % 1004,5 hPa 0,0 l/m 22,0 km/h (4 Bft) S-SW 195 0 min 0 W/m 9,1 C 4,5 C 22,0 km/h (4 Bft)
17.10.2012 15:15 11,6 C 86 % 1004,5 hPa 0,0 l/m 31,0 km/h (5 Bft) S-SW 195 0 min 0 W/m 9,3 C 2,7 C 31,0 km/h (5 Bft)
17.10.2012 15:30 11,7 C 86 % 1004,5 hPa 0,0 l/m 20,6 km/h (4 Bft) S-SW 195 0 min 0 W/m 9,4 C 5,3 C 20,6 km/h (4 Bft)
17.10.2012 15:45 11,9 C 86 % 1004,5 hPa 0,0 l/m 23,0 km/h (4 Bft) S 185 0 min 0 W/m 9,6 C 4,9 C 23,0 km/h (4 Bft)
17.10.2012 16:00 12,2 C 86 % 1004,5 hPa 0,0 l/m 18,1 km/h (3 Bft) S 185 0 min 0 W/m 9,9 C 6,7 C 18,1 km/h (3 Bft)
17.10.2012 16:15 12,3 C 86 % 1004,5 hPa 0,0 l/m 23,0 km/h (4 Bft) S 185 0 min 0 W/m 10,0 C 5,4 C 23,0 km/h (4 Bft)
17.10.2012 16:30 12,3 C 86 % 1004,5 hPa 0,0 l/m 20,4 km/h (4 Bft) SW 215 0 min 0 W/m 10,0 C 6,1 C 20,4 km/h (4 Bft)
17.10.2012 16:45 12,3 C 86 % 1004,5 hPa 0,0 l/m 24,1 km/h (4 Bft) SW 215 0 min 0 W/m 10,0 C 5,2 C 24,1 km/h (4 Bft)
17.10.2012 17:00 12,3 C 86 % 1004,5 hPa 0,0 l/m 24,0 km/h (4 Bft) S-SW 200 0 min 0 W/m 10,0 C 5,2 C 24,0 km/h (4 Bft)
17.10.2012 17:15 12,4 C 86 % 1004,5 hPa 0,0 l/m 20,8 km/h (4 Bft) S-SW 205 0 min 0 W/m 10,1 C 6,2 C 20,8 km/h (4 Bft)
17.10.2012 17:30 12,4 C 86 % 1004,5 hPa 0,0 l/m 17,8 km/h (3 Bft) SW 215 0 min 0 W/m 10,1 C 7,1 C 17,8 km/h (3 Bft)
17.10.2012 17:45 12,4 C 86 % 1004,5 hPa 0,0 l/m 16,6 km/h (3 Bft) S-SW 195 0 min 0 W/m 10,1 C 7,5 C 16,6 km/h (3 Bft)
17.10.2012 18:00 12,4 C 87 % 1004,5 hPa 0,0 l/m 19,0 km/h (3 Bft) SW 215 0 min 0 W/m 10,3 C 6,7 C 19,0 km/h (3 Bft)
17.10.2012 18:15 12,4 C 87 % 1004,5 hPa 0,0 l/m 17,9 km/h (3 Bft) S-SW 205 0 min 0 W/m 10,3 C 7,0 C 17,9 km/h (3 Bft)
17.10.2012 18:30 12,3 C 87 % 1004,5 hPa 0,0 l/m 17,9 km/h (3 Bft) S 175 0 min 0 W/m 10,2 C 6,9 C 17,9 km/h (3 Bft)
17.10.2012 18:45 12,3 C 87 % 1004,5 hPa 0,0 l/m 15,1 km/h (3 Bft) S 180 0 min 0 W/m 10,2 C 7,9 C 15,1 km/h (3 Bft)
17.10.2012 19:00 12,3 C 87 % 1005,5 hPa 0,0 l/m 15,0 km/h (3 Bft) S-SW 205 0 min 0 W/m 10,2 C 7,9 C 15,0 km/h (3 Bft)
17.10.2012 19:15 12,4 C 88 % 1005,5 hPa 0,0 l/m 13,6 km/h (3 Bft) S-SW 205 0 min 0 W/m 10,5 C 8,6 C 13,6 km/h (3 Bft)
17.10.2012 19:30 12,3 C 87 % 1005,5 hPa 0,0 l/m 10,5 km/h (2 Bft) S-SW 205 0 min 0 W/m 10,2 C 9,9 C 10,5 km/h (2 Bft)
17.10.2012 19:45 12,3 C 88 % 1005,5 hPa 0,0 l/m 9,6 km/h (2 Bft) S-SW 210 0 min 0 W/m 10,4 C 10,3 C 9,6 km/h (2 Bft)
17.10.2012 20:00 12,4 C 88 % 1005,5 hPa 0,0 l/m 12,4 km/h (2 Bft) S-SW 205 0 min 0 W/m 10,5 C 9,1 C 12,4 km/h (2 Bft)
17.10.2012 20:15 12,4 C 88 % 1005,5 hPa 0,0 l/m 11,6 km/h (2 Bft) S 175 0 min 0 W/m 10,5 C 9,5 C 11,6 km/h (2 Bft)
17.10.2012 20:30 12,3 C 88 % 1005,5 hPa 0,0 l/m 10,4 km/h (2 Bft) S 175 0 min 0 W/m 10,4 C 9,9 C 10,4 km/h (2 Bft)
17.10.2012 20:45 12,2 C 88 % 1005,5 hPa 0,0 l/m 10,8 km/h (2 Bft) S-SW 200 0 min 0 W/m 10,3 C 9,6 C 10,8 km/h (2 Bft)
17.10.2012 21:00 12,1 C 89 % 1005,5 hPa 0,0 l/m 10,0 km/h (2 Bft) S 170 0 min 0 W/m 10,3 C 9,9 C 10,0 km/h (2 Bft)
17.10.2012 21:15 12,1 C 89 % 1005,5 hPa 0,0 l/m 14,6 km/h (3 Bft) S 180 0 min 0 W/m 10,3 C 7,8 C 14,6 km/h (3 Bft)
17.10.2012 21:30 12,1 C 89 % 1005,5 hPa 0,0 l/m 14,7 km/h (3 Bft) S 185 0 min 0 W/m 10,3 C 7,8 C 14,7 km/h (3 Bft)
17.10.2012 21:45 12,1 C 90 % 1006,5 hPa 0,0 l/m 10,5 km/h (2 Bft) S-SW 200 0 min 0 W/m 10,5 C 9,7 C 10,5 km/h (2 Bft)
17.10.2012 22:00 12,2 C 90 % 1006,5 hPa 0,0 l/m 12,5 km/h (2 Bft) S-SW 210 0 min 0 W/m 10,6 C 8,8 C 12,5 km/h (2 Bft)
17.10.2012 22:15 12,4 C 90 % 1006,5 hPa 0,0 l/m 16,6 km/h (3 Bft) S-SW 210 0 min 0 W/m 10,8 C 7,5 C 16,6 km/h (3 Bft)
17.10.2012 22:30 12,7 C 89 % 1006,5 hPa 0,0 l/m 18,0 km/h (3 Bft) SW 235 0 min 0 W/m 10,9 C 7,4 C 18,0 km/h (3 Bft)
17.10.2012 22:45 12,8 C 89 % 1006,5 hPa 0,0 l/m 19,0 km/h (3 Bft) W-SW 245 0 min 0 W/m 11,0 C 7,2 C 19,0 km/h (3 Bft)
17.10.2012 23:00 13,0 C 89 % 1006,5 hPa 0,0 l/m 21,6 km/h (4 Bft) SW 235 0 min 0 W/m 11,2 C 6,7 C 21,6 km/h (4 Bft)
17.10.2012 23:15 13,0 C 88 % 1006,5 hPa 0,0 l/m 17,8 km/h (3 Bft) SW 225 0 min 0 W/m 11,1 C 7,8 C 17,8 km/h (3 Bft)
17.10.2012 23:30 13,1 C 89 % 1006,5 hPa 0,0 l/m 21,1 km/h (4 Bft) SW 225 0 min 0 W/m 11,3 C 7,0 C 21,1 km/h (4 Bft)
17.10.2012 23:45 13,1 C 89 % 1006,5 hPa 0,0 l/m 18,1 km/h (3 Bft) SW 215 0 min 0 W/m 11,3 C 7,9 C 18,1 km/h (3 Bft)
_ Min-Zeit 08:15 12:15 00:00 - 19:45 - - - - 07:15 00:15 19:45
Minimum _ 8,2 C 83 % 1004,5 hPa - 9,6 km/h (2 Bft) - - - - 6,6 C -0,6 C 9,6 km/h (2 Bft)
_ Max-Zeit 23:30 00:00 05:45 12:45 01:15 - - 00:00 00:00 23:30 19:45 01:15
Maximum _ 13,1 C 90 % 1007,5 hPa 0,3 l/m 35,0 km/h
W (5 Bft)
- - 0 min 0 W/m 11,3 C 10,3 C 35,0 km/h
W (5 Bft)
Durchschnitt _ 10,5 C 88 % 1005,9 hPa #0,3 l/m 20,2 km/h (4 Bft) S-SW - #0 min. 0 W/m 8,6 C 4,1 C 20,2 km/h (4 Bft)
copyright by Holger Just